sensor_id;sensor_type;location;lat;lon;timestamp;pressure;altitude;pressure_sealevel;temperature;humidity
74680;BME280;63211;48.548;2.704;2022-10-16T00:01:42;100443.63;;;19.11;71.53
74680;BME280;63211;48.548;2.704;2022-10-16T00:04:09;100446.34;;;19.11;71.72
74680;BME280;63211;48.548;2.704;2022-10-16T00:06:36;100433.78;;;19.10;71.78
74680;BME280;63211;48.548;2.704;2022-10-16T00:09:04;100440.88;;;19.11;71.57
74680;BME280;63211;48.548;2.704;2022-10-16T00:11:33;100446.59;;;19.09;71.56
74680;BME280;63211;48.548;2.704;2022-10-16T00:14:03;100438.41;;;19.09;71.48
74680;BME280;63211;48.548;2.704;2022-10-16T00:16:30;100442.19;;;19.08;71.51
74680;BME280;63211;48.548;2.704;2022-10-16T00:18:57;100440.28;;;19.09;71.30
74680;BME280;63211;48.548;2.704;2022-10-16T00:21:25;100441.13;;;19.09;71.11
74680;BME280;63211;48.548;2.704;2022-10-16T00:23:54;100431.03;;;19.10;71.25
74680;BME280;63211;48.548;2.704;2022-10-16T00:26:22;100435.66;;;19.09;70.91
74680;BME280;63211;48.548;2.704;2022-10-16T00:28:50;100435.44;;;19.11;71.17
74680;BME280;63211;48.548;2.704;2022-10-16T00:31:18;100439.81;;;19.12;71.36
74680;BME280;63211;48.548;2.704;2022-10-16T00:33:45;100444.44;;;19.11;71.15
74680;BME280;63211;48.548;2.704;2022-10-16T00:36:13;100425.59;;;19.10;71.21
74680;BME280;63211;48.548;2.704;2022-10-16T00:38:40;100428.31;;;19.10;71.16
74680;BME280;63211;48.548;2.704;2022-10-16T00:41:11;100431.63;;;19.12;71.02
74680;BME280;63211;48.548;2.704;2022-10-16T00:43:42;100427.72;;;19.08;71.40
74680;BME280;63211;48.548;2.704;2022-10-16T00:46:13;100427.25;;;19.11;71.18
74680;BME280;63211;48.548;2.704;2022-10-16T00:48:43;100426.41;;;19.10;71.35
74680;BME280;63211;48.548;2.704;2022-10-16T00:51:11;100436.50;;;19.10;71.39
74680;BME280;63211;48.548;2.704;2022-10-16T00:53:38;100434.00;;;19.08;71.12
74680;BME280;63211;48.548;2.704;2022-10-16T00:56:05;100418.47;;;19.09;71.06
74680;BME280;63211;48.548;2.704;2022-10-16T00:58:32;100411.94;;;19.10;70.86
74680;BME280;63211;48.548;2.704;2022-10-16T01:01:00;100408.38;;;19.09;71.04
74680;BME280;63211;48.548;2.704;2022-10-16T01:03:28;100414.44;;;19.11;70.77
74680;BME280;63211;48.548;2.704;2022-10-16T01:06:06;100425.34;;;19.11;71.14
74680;BME280;63211;48.548;2.704;2022-10-16T01:08:40;100430.81;;;19.11;70.95
74680;BME280;63211;48.548;2.704;2022-10-16T01:11:14;100431.38;;;19.13;71.11
74680;BME280;63211;48.548;2.704;2022-10-16T01:13:47;100435.16;;;19.12;71.01
74680;BME280;63211;48.548;2.704;2022-10-16T01:16:24;100440.88;;;19.11;71.19
74680;BME280;63211;48.548;2.704;2022-10-16T01:19:00;100443.13;;;19.14;71.24
74680;BME280;63211;48.548;2.704;2022-10-16T01:21:31;100436.00;;;19.13;70.98
74680;BME280;63211;48.548;2.704;2022-10-16T01:24:03;100428.06;;;19.11;71.12
74680;BME280;63211;48.548;2.704;2022-10-16T01:26:44;100432.94;;;19.09;71.24
74680;BME280;63211;48.548;2.704;2022-10-16T01:29:20;100430.81;;;19.11;71.14
74680;BME280;63211;48.548;2.704;2022-10-16T01:31:55;100425.00;;;19.08;71.01
74680;BME280;63211;48.548;2.704;2022-10-16T01:34:28;100425.59;;;19.10;70.67
74680;BME280;63211;48.548;2.704;2022-10-16T01:37:02;100430.81;;;19.11;70.80
74680;BME280;63211;48.548;2.704;2022-10-16T01:39:33;100425.09;;;19.13;70.85
74680;BME280;63211;48.548;2.704;2022-10-16T01:42:06;100415.50;;;19.10;70.62
74680;BME280;63211;48.548;2.704;2022-10-16T01:44:37;100430.31;;;19.14;70.80
74680;BME280;63211;48.548;2.704;2022-10-16T01:47:07;100437.44;;;19.15;71.27
74680;BME280;63211;48.548;2.704;2022-10-16T01:49:38;100410.03;;;18.99;70.86
74680;BME280;63211;48.548;2.704;2022-10-16T01:52:07;100422.84;;;19.10;71.04
74680;BME280;63211;48.548;2.704;2022-10-16T01:54:37;100429.72;;;19.12;71.02
74680;BME280;63211;48.548;2.704;2022-10-16T01:57:05;100420.34;;;19.08;71.19
74680;BME280;63211;48.548;2.704;2022-10-16T01:59:40;100429.72;;;19.12;71.22
74680;BME280;63211;48.548;2.704;2022-10-16T02:02:10;100421.53;;;19.01;71.07
74680;BME280;63211;48.548;2.704;2022-10-16T02:04:40;100449.91;;;19.11;71.12
74680;BME280;63211;48.548;2.704;2022-10-16T02:07:08;100455.38;;;19.11;71.09
74680;BME280;63211;48.548;2.704;2022-10-16T02:09:35;100457.25;;;19.11;70.82
74680;BME280;63211;48.548;2.704;2022-10-16T02:12:07;100446.09;;;19.12;70.73
74680;BME280;63211;48.548;2.704;2022-10-16T02:14:39;100441.47;;;19.13;70.48
74680;BME280;63211;48.548;2.704;2022-10-16T02:17:11;100429.38;;;19.09;71.03
74680;BME280;63211;48.548;2.704;2022-10-16T02:19:38;100449.41;;;19.14;70.87
74680;BME280;63211;48.548;2.704;2022-10-16T02:22:07;100450.59;;;19.18;70.54
74680;BME280;63211;48.548;2.704;2022-10-16T02:24:39;100445.38;;;19.17;70.85
74680;BME280;63211;48.548;2.704;2022-10-16T02:27:12;100448.94;;;19.17;70.94
74680;BME280;63211;48.548;2.704;2022-10-16T02:29:45;100441.72;;;19.11;70.97
74680;BME280;63211;48.548;2.704;2022-10-16T02:32:17;100449.41;;;19.14;71.01
74680;BME280;63211;48.548;2.704;2022-10-16T02:34:45;100445.03;;;19.13;70.93
74680;BME280;63211;48.548;2.704;2022-10-16T02:37:13;100446.91;;;19.13;70.91
74680;BME280;63211;48.548;2.704;2022-10-16T02:39:41;100457.00;;;19.12;70.82
74680;BME280;63211;48.548;2.704;2022-10-16T02:42:09;100462.44;;;19.12;71.18
74680;BME280;63211;48.548;2.704;2022-10-16T02:44:36;100471.13;;;19.09;71.00
74680;BME280;63211;48.548;2.704;2022-10-16T02:47:04;100471.47;;;19.13;70.80
74680;BME280;63211;48.548;2.704;2022-10-16T02:49:31;100481.31;;;19.14;70.67
74680;BME280;63211;48.548;2.704;2022-10-16T02:51:57;100483.59;;;19.17;70.84
74680;BME280;63211;48.548;2.704;2022-10-16T02:54:24;100477.06;;;19.18;70.57
74680;BME280;63211;48.548;2.704;2022-10-16T02:56:50;100486.31;;;19.17;70.61
74680;BME280;63211;48.548;2.704;2022-10-16T02:59:17;100480.25;;;19.15;70.62
74680;BME280;63211;48.548;2.704;2022-10-16T03:01:44;100473.50;;;19.17;70.78
74680;BME280;63211;48.548;2.704;2022-10-16T03:04:12;100474.56;;;19.16;70.72
74680;BME280;63211;48.548;2.704;2022-10-16T03:06:38;100475.41;;;19.17;70.49
74680;BME280;63211;48.548;2.704;2022-10-16T03:09:05;100468.28;;;19.16;70.79
74680;BME280;63211;48.548;2.704;2022-10-16T03:11:31;100467.22;;;19.17;70.90
74680;BME280;63211;48.548;2.704;2022-10-16T03:13:58;100467.44;;;19.15;70.96
74680;BME280;63211;48.548;2.704;2022-10-16T03:16:24;100461.16;;;19.15;70.74
74680;BME280;63211;48.548;2.704;2022-10-16T03:18:51;100455.94;;;19.13;70.85
74680;BME280;63211;48.548;2.704;2022-10-16T03:21:19;100450.47;;;19.13;70.88
74680;BME280;63211;48.548;2.704;2022-10-16T03:23:46;100450.47;;;19.13;70.82
74680;BME280;63211;48.548;2.704;2022-10-16T03:26:12;100449.19;;;19.16;70.80
74680;BME280;63211;48.548;2.704;2022-10-16T03:28:39;100445.16;;;19.18;70.59
74680;BME280;63211;48.548;2.704;2022-10-16T03:31:06;100464.84;;;19.20;70.43
74680;BME280;63211;48.548;2.704;2022-10-16T03:33:33;100477.44;;;19.21;70.66
74680;BME280;63211;48.548;2.704;2022-10-16T03:36:00;100468.41;;;19.21;70.58
74680;BME280;63211;48.548;2.704;2022-10-16T03:38:28;100469.25;;;19.21;70.60
74680;BME280;63211;48.548;2.704;2022-10-16T03:40:54;100463.66;;;19.16;70.63
74680;BME280;63211;48.548;2.704;2022-10-16T03:43:21;100471.38;;;19.19;70.77
74680;BME280;63211;48.548;2.704;2022-10-16T03:45:49;100478.38;;;19.15;70.73
74680;BME280;63211;48.548;2.704;2022-10-16T03:48:16;100466.63;;;19.15;70.72
74680;BME280;63211;48.548;2.704;2022-10-16T03:50:43;100465.06;;;19.19;70.75
74680;BME280;63211;48.548;2.704;2022-10-16T03:53:09;100471.59;;;19.18;70.91
74680;BME280;63211;48.548;2.704;2022-10-16T03:55:38;100479.78;;;19.18;70.67
74680;BME280;63211;48.548;2.704;2022-10-16T03:58:04;100481.69;;;19.17;70.58
74680;BME280;63211;48.548;2.704;2022-10-16T04:00:31;100467.22;;;19.17;70.85
74680;BME280;63211;48.548;2.704;2022-10-16T04:02:58;100482.06;;;19.21;70.45
74680;BME280;63211;48.548;2.704;2022-10-16T04:05:24;100460.22;;;19.21;70.35
74680;BME280;63211;48.548;2.704;2022-10-16T04:07:51;100457.25;;;19.22;70.43
74680;BME280;63211;48.548;2.704;2022-10-16T04:10:17;100470.91;;;19.22;70.29
74680;BME280;63211;48.548;2.704;2022-10-16T04:12:45;100459.38;;;19.20;70.68
74680;BME280;63211;48.548;2.704;2022-10-16T04:15:12;100459.97;;;19.22;70.39
74680;BME280;63211;48.548;2.704;2022-10-16T04:17:38;100470.66;;;19.24;70.62
74680;BME280;63211;48.548;2.704;2022-10-16T04:20:06;100456.66;;;19.20;70.53
74680;BME280;63211;48.548;2.704;2022-10-16T04:22:32;100458.09;;;19.23;70.51
74680;BME280;63211;48.548;2.704;2022-10-16T04:24:59;100457.50;;;19.21;70.44
74680;BME280;63211;48.548;2.704;2022-10-16T04:27:25;100465.69;;;19.21;70.64
74680;BME280;63211;48.548;2.704;2022-10-16T04:29:54;100466.50;;;19.21;70.48
74680;BME280;63211;48.548;2.704;2022-10-16T04:32:21;100475.41;;;19.17;70.60
74680;BME280;63211;48.548;2.704;2022-10-16T04:34:48;100475.75;;;19.20;70.95
74680;BME280;63211;48.548;2.704;2022-10-16T04:37:14;100467.56;;;19.20;70.83
74680;BME280;63211;48.548;2.704;2022-10-16T04:39:41;100462.13;;;19.20;70.54
74680;BME280;63211;48.548;2.704;2022-10-16T04:42:08;100472.81;;;19.22;70.56
74680;BME280;63211;48.548;2.704;2022-10-16T04:44:34;100484.53;;;19.22;70.53
74680;BME280;63211;48.548;2.704;2022-10-16T04:47:02;100487.03;;;19.24;70.09
74680;BME280;63211;48.548;2.704;2022-10-16T04:49:29;100500.47;;;19.26;70.34
74680;BME280;63211;48.548;2.704;2022-10-16T04:51:56;100513.28;;;19.25;70.53
74680;BME280;63211;48.548;2.704;2022-10-16T04:54:23;100511.38;;;19.26;70.39
74680;BME280;63211;48.548;2.704;2022-10-16T04:56:49;100523.13;;;19.26;70.64
74680;BME280;63211;48.548;2.704;2022-10-16T04:59:17;100533.44;;;19.24;70.54
74680;BME280;63211;48.548;2.704;2022-10-16T05:01:44;100544.38;;;19.24;70.71
74680;BME280;63211;48.548;2.704;2022-10-16T05:04:12;100544.59;;;19.22;70.77
74680;BME280;63211;48.548;2.704;2022-10-16T05:06:40;100546.50;;;19.22;70.80
74680;BME280;63211;48.548;2.704;2022-10-16T05:09:07;100545.66;;;19.21;70.83
74680;BME280;63211;48.548;2.704;2022-10-16T05:11:35;100529.28;;;19.10;70.88
74680;BME280;63211;48.548;2.704;2022-10-16T05:14:02;100534.75;;;19.21;70.98
74680;BME280;63211;48.548;2.704;2022-10-16T05:16:29;100528.22;;;19.22;70.79
74680;BME280;63211;48.548;2.704;2022-10-16T05:18:56;100523.34;;;19.25;70.66
74680;BME280;63211;48.548;2.704;2022-10-16T05:21:24;100530.47;;;19.26;70.78
74680;BME280;63211;48.548;2.704;2022-10-16T05:23:50;100527.75;;;19.26;70.46
74680;BME280;63211;48.548;2.704;2022-10-16T05:26:19;100543.06;;;19.27;70.37
74680;BME280;63211;48.548;2.704;2022-10-16T05:28:46;100548.28;;;19.28;70.29
74680;BME280;63211;48.548;2.704;2022-10-16T05:31:12;100539.28;;;19.28;70.25
74680;BME280;63211;48.548;2.704;2022-10-16T05:33:39;100541.16;;;19.27;70.72
74680;BME280;63211;48.548;2.704;2022-10-16T05:36:07;100547.47;;;19.28;70.63
74680;BME280;63211;48.548;2.704;2022-10-16T05:38:37;100547.56;;;19.21;70.44
74680;BME280;63211;48.548;2.704;2022-10-16T05:41:04;100558.59;;;19.26;70.58
74680;BME280;63211;48.548;2.704;2022-10-16T05:43:31;100548.38;;;19.21;70.58
74680;BME280;63211;48.548;2.704;2022-10-16T05:46:00;100544.38;;;19.24;70.60
74680;BME280;63211;48.548;2.704;2022-10-16T05:48:27;100543.53;;;19.23;70.69
74680;BME280;63211;48.548;2.704;2022-10-16T05:50:58;100547.56;;;19.21;70.99
74680;BME280;63211;48.548;2.704;2022-10-16T05:53:24;100546.03;;;19.25;70.78
74680;BME280;63211;48.548;2.704;2022-10-16T05:55:53;100558.84;;;19.25;70.36
74680;BME280;63211;48.548;2.704;2022-10-16T05:58:20;100562.16;;;19.27;70.49
74680;BME280;63211;48.548;2.704;2022-10-16T06:00:53;100566.34;;;19.29;70.43
74680;BME280;63211;48.548;2.704;2022-10-16T06:03:19;100562.78;;;19.29;70.51
74680;BME280;63211;48.548;2.704;2022-10-16T06:05:46;100564.91;;;19.27;70.45
74680;BME280;63211;48.548;2.704;2022-10-16T06:08:12;100562.78;;;19.29;70.39
74680;BME280;63211;48.548;2.704;2022-10-16T06:10:39;100568.22;;;19.29;70.63
74680;BME280;63211;48.548;2.704;2022-10-16T06:13:07;100572.84;;;19.28;70.60
74680;BME280;63211;48.548;2.704;2022-10-16T06:15:34;100583.78;;;19.28;70.69
74680;BME280;63211;48.548;2.704;2022-10-16T06:18:00;100579.38;;;19.27;70.62
74680;BME280;63211;48.548;2.704;2022-10-16T06:20:27;100571.66;;;19.24;70.52
74680;BME280;63211;48.548;2.704;2022-10-16T06:22:53;100572.25;;;19.26;70.89
74680;BME280;63211;48.548;2.704;2022-10-16T06:25:20;100572.50;;;19.25;70.92
74680;BME280;63211;48.548;2.704;2022-10-16T06:27:46;100579.00;;;19.23;70.83
74680;BME280;63211;48.548;2.704;2022-10-16T06:30:15;100576.06;;;19.25;71.14
74680;BME280;63211;48.548;2.704;2022-10-16T06:32:41;100580.44;;;19.26;70.31
74680;BME280;63211;48.548;2.704;2022-10-16T06:35:08;100573.31;;;19.25;70.52
74680;BME280;63211;48.548;2.704;2022-10-16T06:37:34;100570.13;;;19.28;70.33
74680;BME280;63211;48.548;2.704;2022-10-16T06:40:01;100567.41;;;19.28;70.15
74680;BME280;63211;48.548;2.704;2022-10-16T06:42:29;100566.34;;;19.29;70.22
74680;BME280;63211;48.548;2.704;2022-10-16T06:44:56;100558.97;;;19.30;70.52
74680;BME280;63211;48.548;2.704;2022-10-16T06:47:24;100565.50;;;19.29;70.44
74680;BME280;63211;48.548;2.704;2022-10-16T06:49:51;100579.16;;;19.29;70.75
74680;BME280;63211;48.548;2.704;2022-10-16T06:52:17;100590.28;;;19.27;70.78
74680;BME280;63211;48.548;2.704;2022-10-16T06:54:44;100593.63;;;19.29;70.73
74680;BME280;63211;48.548;2.704;2022-10-16T06:57:10;100591.59;;;19.25;70.84
74680;BME280;63211;48.548;2.704;2022-10-16T06:59:37;100603.94;;;19.27;70.55
74680;BME280;63211;48.548;2.704;2022-10-16T07:02:04;100617.59;;;19.27;70.77
74680;BME280;63211;48.548;2.704;2022-10-16T07:04:33;100627.69;;;19.27;70.73
74680;BME280;63211;48.548;2.704;2022-10-16T07:07:00;100622.44;;;19.25;70.75
74680;BME280;63211;48.548;2.704;2022-10-16T07:09:26;100629.34;;;19.28;70.61
74680;BME280;63211;48.548;2.704;2022-10-16T07:11:53;100627.44;;;19.28;70.37
74680;BME280;63211;48.548;2.704;2022-10-16T07:14:21;100633.97;;;19.27;70.00
74680;BME280;63211;48.548;2.704;2022-10-16T07:16:48;100640.25;;;19.28;70.64
74680;BME280;63211;48.548;2.704;2022-10-16T07:19:15;100642.75;;;19.29;70.46
74680;BME280;63211;48.548;2.704;2022-10-16T07:21:44;100656.41;;;19.29;70.40
74680;BME280;63211;48.548;2.704;2022-10-16T07:24:13;100657.47;;;19.28;70.79
74680;BME280;63211;48.548;2.704;2022-10-16T07:26:40;100652.47;;;19.25;70.59
74680;BME280;63211;48.548;2.704;2022-10-16T07:29:11;100664.59;;;19.29;70.52
74680;BME280;63211;48.548;2.704;2022-10-16T07:31:39;100676.59;;;19.28;70.39
74680;BME280;63211;48.548;2.704;2022-10-16T07:34:06;100673.84;;;19.28;70.63
74680;BME280;63211;48.548;2.704;2022-10-16T07:36:33;100673.16;;;19.33;71.11
74680;BME280;63211;48.548;2.704;2022-10-16T07:39:02;100671.59;;;19.25;71.16
74680;BME280;63211;48.548;2.704;2022-10-16T07:41:28;100680.69;;;19.19;71.58
74680;BME280;63211;48.548;2.704;2022-10-16T07:43:58;100669.91;;;19.24;71.17
74680;BME280;63211;48.548;2.704;2022-10-16T07:46:26;100674.16;;;19.20;71.35
74680;BME280;63211;48.548;2.704;2022-10-16T07:48:53;100669.16;;;19.17;71.50
74680;BME280;63211;48.548;2.704;2022-10-16T07:51:22;100674.84;;;19.15;71.66
74680;BME280;63211;48.548;2.704;2022-10-16T07:53:49;100673.19;;;19.14;71.65
74680;BME280;63211;48.548;2.704;2022-10-16T07:56:18;100672.34;;;19.14;71.74
74680;BME280;63211;48.548;2.704;2022-10-16T07:58:45;100654.28;;;19.01;71.92
74680;BME280;63211;48.548;2.704;2022-10-16T08:01:15;100671.53;;;19.13;71.52
74680;BME280;63211;48.548;2.704;2022-10-16T08:03:43;100662.38;;;19.08;72.01
74680;BME280;63211;48.548;2.704;2022-10-16T08:06:10;100670.69;;;19.13;71.72
74680;BME280;63211;48.548;2.704;2022-10-16T08:08:37;100660.50;;;19.08;71.62
74680;BME280;63211;48.548;2.704;2022-10-16T08:11:03;100664.88;;;19.09;71.96
74680;BME280;63211;48.548;2.704;2022-10-16T08:13:31;100678.31;;;19.11;71.67
74680;BME280;63211;48.548;2.704;2022-10-16T08:15:58;100677.47;;;19.10;71.85
74680;BME280;63211;48.548;2.704;2022-10-16T08:18:25;100681.25;;;19.09;72.01
74680;BME280;63211;48.548;2.704;2022-10-16T08:20:55;100676.25;;;19.06;72.09
74680;BME280;63211;48.548;2.704;2022-10-16T08:23:23;100686.72;;;19.09;72.16
74680;BME280;63211;48.548;2.704;2022-10-16T08:25:51;100688.84;;;19.07;72.19
74680;BME280;63211;48.548;2.704;2022-10-16T08:28:18;100678.38;;;19.04;72.49
74680;BME280;63211;48.548;2.704;2022-10-16T08:30:46;100687.63;;;19.03;72.18
74680;BME280;63211;48.548;2.704;2022-10-16T08:33:13;100684.22;;;19.08;72.28
74680;BME280;63211;48.548;2.704;2022-10-16T08:35:39;100695.38;;;19.06;72.80
74680;BME280;63211;48.548;2.704;2022-10-16T08:38:06;100694.16;;;19.02;72.43
74680;BME280;63211;48.548;2.704;2022-10-16T08:40:34;100707.94;;;19.07;72.58
74680;BME280;63211;48.548;2.704;2022-10-16T08:43:14;100705.22;;;19.07;72.44
74680;BME280;63211;48.548;2.704;2022-10-16T08:45:51;100708.78;;;19.08;72.40
74680;BME280;63211;48.548;2.704;2022-10-16T08:48:29;100716.13;;;19.07;72.64
74680;BME280;63211;48.548;2.704;2022-10-16T08:50:57;100720.53;;;19.08;72.65
74680;BME280;63211;48.548;2.704;2022-10-16T08:53:28;100719.53;;;19.03;72.54
74680;BME280;63211;48.548;2.704;2022-10-16T08:55:56;100718.25;;;19.05;72.65
74680;BME280;63211;48.548;2.704;2022-10-16T08:58:28;100701.81;;;18.94;72.54
74680;BME280;63211;48.548;2.704;2022-10-16T09:00:58;100719.31;;;19.04;72.78
74680;BME280;63211;48.548;2.704;2022-10-16T09:03:42;100727.28;;;19.06;72.78
74680;BME280;63211;48.548;2.704;2022-10-16T09:06:26;100726.22;;;19.07;72.84
74680;BME280;63211;48.548;2.704;2022-10-16T09:09:05;100725.59;;;19.05;72.90
74680;BME280;63211;48.548;2.704;2022-10-16T09:11:44;100727.78;;;19.14;72.45
74680;BME280;63211;48.548;2.704;2022-10-16T09:14:28;100726.59;;;19.10;72.28
74680;BME280;63211;48.548;2.704;2022-10-16T09:17:16;100723.88;;;19.10;71.89
74680;BME280;63211;48.548;2.704;2022-10-16T09:19:51;100716.59;;;19.34;71.25
74680;BME280;63211;48.548;2.704;2022-10-16T09:22:21;100718.78;;;19.44;71.36
74680;BME280;63211;48.548;2.704;2022-10-16T09:24:51;100727.63;;;19.28;71.86
74680;BME280;63211;48.548;2.704;2022-10-16T09:27:17;100734.22;;;19.20;71.39
74680;BME280;63211;48.548;2.704;2022-10-16T09:29:44;100723.75;;;19.17;71.15
74680;BME280;63211;48.548;2.704;2022-10-16T09:32:15;100715.69;;;19.10;70.92
74680;BME280;63211;48.548;2.704;2022-10-16T09:34:47;100728.59;;;19.15;70.92
74680;BME280;63211;48.548;2.704;2022-10-16T09:37:17;100717.69;;;19.15;70.80
74680;BME280;63211;48.548;2.704;2022-10-16T09:39:45;100725.88;;;19.15;70.29
74680;BME280;63211;48.548;2.704;2022-10-16T09:42:15;100722.53;;;19.13;70.52
74680;BME280;63211;48.548;2.704;2022-10-16T09:44:42;100728.38;;;19.16;70.22
74680;BME280;63211;48.548;2.704;2022-10-16T09:47:17;100729.22;;;19.17;70.34
74680;BME280;63211;48.548;2.704;2022-10-16T09:49:53;100730.28;;;19.16;70.52
74680;BME280;63211;48.548;2.704;2022-10-16T09:52:21;100733.00;;;19.16;70.33
74680;BME280;63211;48.548;2.704;2022-10-16T09:54:52;100729.66;;;19.14;70.21
74680;BME280;63211;48.548;2.704;2022-10-16T09:57:19;100736.56;;;19.16;70.25
74680;BME280;63211;48.548;2.704;2022-10-16T09:59:47;100734.66;;;19.17;70.18
74680;BME280;63211;48.548;2.704;2022-10-16T10:02:17;100718.75;;;19.14;70.13
74680;BME280;63211;48.548;2.704;2022-10-16T10:04:49;100721.03;;;19.17;70.09
74680;BME280;63211;48.548;2.704;2022-10-16T10:07:18;100717.47;;;19.16;70.34
74680;BME280;63211;48.548;2.704;2022-10-16T10:09:47;100710.09;;;19.17;70.24
74680;BME280;63211;48.548;2.704;2022-10-16T10:12:21;100717.47;;;19.16;69.96
74680;BME280;63211;48.548;2.704;2022-10-16T10:14:49;100720.78;;;19.18;69.85
74680;BME280;63211;48.548;2.704;2022-10-16T10:17:20;100713.44;;;19.19;70.17
74680;BME280;63211;48.548;2.704;2022-10-16T10:19:52;100713.44;;;19.19;69.91
74680;BME280;63211;48.548;2.704;2022-10-16T10:22:26;100711.78;;;19.18;70.08
74680;BME280;63211;48.548;2.704;2022-10-16T10:25:14;100712.38;;;19.20;69.91
74680;BME280;63211;48.548;2.704;2022-10-16T10:27:53;100702.53;;;19.19;69.89
74680;BME280;63211;48.548;2.704;2022-10-16T10:30:29;100701.69;;;19.18;70.28
74680;BME280;63211;48.548;2.704;2022-10-16T10:33:12;100700.03;;;19.17;70.03
74680;BME280;63211;48.548;2.704;2022-10-16T10:35:45;100697.06;;;19.19;70.03
74680;BME280;63211;48.548;2.704;2022-10-16T10:38:23;100692.44;;;19.19;69.86
74680;BME280;63211;48.548;2.704;2022-10-16T10:40:57;100692.66;;;19.18;69.98
74680;BME280;63211;48.548;2.704;2022-10-16T10:43:38;100703.59;;;19.18;69.84
74680;BME280;63211;48.548;2.704;2022-10-16T10:46:11;100703.81;;;19.16;69.96
74680;BME280;63211;48.548;2.704;2022-10-16T10:49:01;100696.47;;;19.17;69.81
74680;BME280;63211;48.548;2.704;2022-10-16T10:51:38;100691.84;;;19.17;69.68
74680;BME280;63211;48.548;2.704;2022-10-16T10:54:14;100698.13;;;19.18;69.98
74680;BME280;63211;48.548;2.704;2022-10-16T10:56:47;100697.06;;;19.19;69.91
74680;BME280;63211;48.548;2.704;2022-10-16T11:02:14;100697.91;;;19.19;69.93
74680;BME280;63211;48.548;2.704;2022-10-16T11:07:41;100684.03;;;19.21;69.37
74680;BME280;63211;48.548;2.704;2022-10-16T11:10:14;100678.78;;;19.19;69.50
74680;BME280;63211;48.548;2.704;2022-10-16T11:12:44;100686.75;;;19.21;69.81
74680;BME280;63211;48.548;2.704;2022-10-16T11:15:16;100684.03;;;19.21;69.33
74680;BME280;63211;48.548;2.704;2022-10-16T11:17:48;100684.84;;;19.21;69.35
74680;BME280;63211;48.548;2.704;2022-10-16T11:20:22;100675.59;;;19.22;69.42
74680;BME280;63211;48.548;2.704;2022-10-16T11:22:52;100672.88;;;19.22;69.45
74680;BME280;63211;48.548;2.704;2022-10-16T11:25:23;100670.16;;;19.22;69.03
74680;BME280;63211;48.548;2.704;2022-10-16T11:27:55;100658.84;;;19.19;70.15
74680;BME280;63211;48.548;2.704;2022-10-16T11:30:25;100650.22;;;19.34;70.10
74680;BME280;63211;48.548;2.704;2022-10-16T11:33:02;100642.41;;;19.37;69.39
74680;BME280;63211;48.548;2.704;2022-10-16T11:35:41;100646.22;;;19.36;70.37
74680;BME280;63211;48.548;2.704;2022-10-16T11:38:15;100640.16;;;19.34;69.47
74680;BME280;63211;48.548;2.704;2022-10-16T11:40:47;100629.22;;;19.34;69.41
74680;BME280;63211;48.548;2.704;2022-10-16T11:43:21;100633.84;;;19.34;69.17
74680;BME280;63211;48.548;2.704;2022-10-16T11:45:51;100638.00;;;19.36;69.49
74680;BME280;63211;48.548;2.704;2022-10-16T11:48:24;100639.31;;;19.34;69.60
74680;BME280;63211;48.548;2.704;2022-10-16T11:50:58;100634.69;;;19.34;69.64
74680;BME280;63211;48.548;2.704;2022-10-16T11:53:39;100640.75;;;19.36;69.30
74680;BME280;63211;48.548;2.704;2022-10-16T11:56:12;100638.84;;;19.37;69.14
74680;BME280;63211;48.548;2.704;2022-10-16T11:58:50;100645.97;;;19.38;69.02
74680;BME280;63211;48.548;2.704;2022-10-16T12:01:22;100638.84;;;19.37;69.54
74680;BME280;63211;48.548;2.704;2022-10-16T12:03:59;100634.59;;;19.41;69.51
74680;BME280;63211;48.548;2.704;2022-10-16T12:06:35;100635.88;;;19.38;69.08
74680;BME280;63211;48.548;2.704;2022-10-16T12:09:04;100624.38;;;19.36;69.59
74680;BME280;63211;48.548;2.704;2022-10-16T12:11:34;100627.47;;;19.40;69.25
74680;BME280;63211;48.548;2.704;2022-10-16T12:14:07;100621.41;;;19.38;69.21
74680;BME280;63211;48.548;2.704;2022-10-16T12:16:33;100617.16;;;19.42;69.13
74680;BME280;63211;48.548;2.704;2022-10-16T12:19:11;100613.59;;;19.41;69.21
74680;BME280;63211;48.548;2.704;2022-10-16T12:21:40;100607.75;;;19.38;69.36
74680;BME280;63211;48.548;2.704;2022-10-16T12:24:21;100617.75;;;19.44;69.05
74680;BME280;63211;48.548;2.704;2022-10-16T12:26:50;100594.00;;;19.44;69.21
74680;BME280;63211;48.548;2.704;2022-10-16T12:29:32;100603.19;;;19.50;68.98
74680;BME280;63211;48.548;2.704;2022-10-16T12:31:59;100605.69;;;19.51;69.10
74680;BME280;63211;48.548;2.704;2022-10-16T12:34:28;100602.97;;;19.51;69.34
74680;BME280;63211;48.548;2.704;2022-10-16T12:37:08;100597.28;;;19.53;68.90
74680;BME280;63211;48.548;2.704;2022-10-16T12:39:35;100594.16;;;19.61;70.09
74680;BME280;63211;48.548;2.704;2022-10-16T12:42:05;100591.91;;;19.58;70.10
74680;BME280;63211;48.548;2.704;2022-10-16T12:44:32;100589.06;;;19.65;69.75
74680;BME280;63211;48.548;2.704;2022-10-16T12:46:59;100594.06;;;19.68;69.85
74680;BME280;63211;48.548;2.704;2022-10-16T12:49:32;100589.06;;;19.76;70.03
74680;BME280;63211;48.548;2.704;2022-10-16T12:52:00;100577.44;;;19.93;69.34
74680;BME280;63211;48.548;2.704;2022-10-16T12:54:29;100582.41;;;19.96;70.06
74680;BME280;63211;48.548;2.704;2022-10-16T12:57:09;100568.75;;;19.84;69.74
74680;BME280;63211;48.548;2.704;2022-10-16T12:59:46;100578.38;;;19.86;70.65
74680;BME280;63211;48.548;2.704;2022-10-16T13:05:22;100578.75;;;19.90;72.07
74680;BME280;63211;48.548;2.704;2022-10-16T13:08:03;100572.56;;;19.83;72.82
74680;BME280;63211;48.548;2.704;2022-10-16T13:10:38;100570.78;;;19.65;74.13
74680;BME280;63211;48.548;2.704;2022-10-16T13:13:16;100573.75;;;19.52;75.44